Terminal Aerodrome Forecast
Issued by NWS Wilmington, OH

Current Version | Previous Version | Text Only | Print | Product List | Glossary Off
Versions: 1 2 3 4 5 6 7 8 9 10 11 12 13 14 15 16 17 18 19 20

000
FTUS41 KILN 211743
TAFCMH
TAF
KCMH 211743Z 2118/2218 20007KT P6SM VCSH OVC022
      TEMPO 2122/2202 OVC008
     FM220200 18005KT 5SM BR VCSH OVC008
     FM221000 16005KT 4SM BR VCSH OVC013
     FM221100 16005KT P6SM OVC018
     FM221300 16007KT P6SM BKN035
     FM221600 17012G22KT P6SM BKN080=

USA.gov is the U.S. government's official web portal to all federal, state and local government web resources and services.